Time;durP1;ratioP1;P1;durP2;ratioP2;P2;SDS_P1;SDS_P2;PMS_P1;PMS_P2;Temp;Humidity;BMP_temperature;BMP_pressure;BME280_temperature;BME280_humidity;BME280_pressure;Samples;Min_cycle;Max_cycle;Signal;HPM_P1;HPM_P2
2022/09/27 05:26:15;;;;;;;8.55;2.90;;;10.20;99.90;;;;;;5260572;22;20786;-72
2022/09/27 05:28:47;;;;;;;10.38;2.83;;;10.20;99.90;;;;;;5054839;28;20057;-70
2022/09/27 05:31:13;;;;;;;5.90;3.38;;;10.20;99.90;;;;;;5062497;28;20029;-72
2022/09/27 05:33:39;;;;;;;6.25;3.00;;;10.20;99.90;;;;;;5063033;28;20025;-73
2022/09/27 05:36:07;;;;;;;5.50;3.28;;;10.20;99.90;;;;;;5078529;28;20025;-74
2022/09/27 05:38:34;;;;;;;9.02;3.40;;;10.20;99.90;;;;;;5058721;28;20070;-70
2022/09/27 05:40:59;;;;;;;9.05;3.72;;;10.20;99.90;;;;;;5064386;28;20028;-70
2022/09/27 05:43:26;;;;;;;11.98;4.63;;;10.20;99.90;;;;;;5061254;28;20045;-71
2022/09/27 05:45:52;;;;;;;13.10;6.53;;;10.20;99.90;;;;;;5063280;28;20085;-69
2022/09/27 05:48:17;;;;;;;8.98;4.80;;;10.20;99.90;;;;;;5062581;28;20029;-72
2022/09/27 05:50:43;;;;;;;6.85;3.70;;;10.20;99.90;;;;;;5073971;28;20049;-73
2022/09/27 05:53:09;;;;;;;10.82;3.35;;;10.20;99.90;;;;;;5062587;28;20025;-71
2022/09/27 05:55:35;;;;;;;7.05;3.25;;;10.10;99.90;;;;;;5062417;28;20027;-71
2022/09/27 05:58:06;;;;;;;5.25;2.85;;;10.10;99.90;;;;;;5062344;28;20044;-70
2022/09/27 06:00:32;;;;;;;5.65;3.17;;;10.20;99.90;;;;;;5061776;28;20043;-71
2022/09/27 06:03:00;;;;;;;5.65;3.15;;;10.10;99.90;;;;;;5062016;28;20025;-72
2022/09/27 06:05:29;;;;;;;6.35;2.80;;;10.10;99.90;;;;;;5061104;28;20639;-72
2022/09/27 06:08:00;;;;;;;10.52;6.03;;;10.10;99.90;;;;;;5062052;28;20029;-71
2022/09/27 06:10:27;;;;;;;12.15;3.35;;;10.10;99.90;;;;;;5062153;28;20140;-73
2022/09/27 06:12:54;;;;;;;4.43;2.40;;;10.10;99.90;;;;;;5060506;28;20064;-69
2022/09/27 06:15:20;;;;;;;9.20;2.72;;;10.20;99.90;;;;;;5061880;28;20104;-72
2022/09/27 06:17:45;;;;;;;2.63;1.95;;;10.20;99.90;;;;;;5062280;28;20044;-71
2022/09/27 06:20:12;;;;;;;4.13;2.17;;;10.20;99.90;;;;;;5060761;28;20480;-73
2022/09/27 06:22:38;;;;;;;5.20;2.13;;;10.20;99.90;;;;;;5061711;28;20091;-72
2022/09/27 06:25:04;;;;;;;4.20;1.90;;;10.10;99.90;;;;;;5056590;28;20084;-71
2022/09/27 06:27:31;;;;;;;4.68;2.25;;;10.10;99.90;;;;;;5065981;28;20049;-73
2022/09/27 06:29:56;;;;;;;4.25;2.72;;;10.10;99.90;;;;;;5057686;28;20029;-72
2022/09/27 06:32:22;;;;;;;6.15;2.95;;;10.20;99.90;;;;;;5052313;28;20075;-71
2022/09/27 06:34:47;;;;;;;6.32;2.83;;;10.10;99.90;;;;;;5051851;28;20025;-73
2022/09/27 06:37:14;;;;;;;7.53;3.30;;;10.10;99.90;;;;;;5049752;28;20052;-72
2022/09/27 06:39:40;;;;;;;6.45;3.17;;;10.20;99.90;;;;;;5051062;28;20036;-70
2022/09/27 06:42:07;;;;;;;5.63;3.15;;;10.20;99.90;;;;;;5052318;28;20026;-72
2022/09/27 06:44:33;;;;;;;9.00;3.05;;;10.20;99.90;;;;;;5052310;28;20025;-72
2022/09/27 06:46:59;;;;;;;5.25;2.72;;;10.20;99.90;;;;;;5065317;28;20033;-72
2022/09/27 06:49:24;;;;;;;8.73;3.40;;;10.20;99.90;;;;;;5050861;28;20048;-74
2022/09/27 06:51:51;;;;;;;6.00;3.15;;;10.20;99.90;;;;;;5054932;28;20033;-73
2022/09/27 06:54:17;;;;;;;6.78;3.85;;;10.30;99.90;;;;;;5053035;28;20045;-70
2022/09/27 06:56:43;;;;;;;9.05;3.47;;;10.30;99.90;;;;;;5050880;28;20026;-72
2022/09/27 07:01:53;;;;;;;6.10;2.83;;;10.30;99.90;;;;;;5051608;28;20091;-74
2022/09/27 07:04:18;;;;;;;10.65;3.22;;;10.30;99.90;;;;;;5050552;28;20063;-72
2022/09/27 07:06:44;;;;;;;10.27;2.95;;;10.30;99.90;;;;;;5051751;28;20047;-73
2022/09/27 07:09:10;;;;;;;7.07;3.17;;;10.30;99.90;;;;;;5051426;28;20057;-72
2022/09/27 07:11:36;;;;;;;4.20;2.45;;;10.40;99.90;;;;;;5051833;28;20032;-71
2022/09/27 07:14:03;;;;;;;7.13;2.45;;;10.40;99.90;;;;;;5065046;28;20020;-72
2022/09/27 07:16:30;;;;;;;6.40;1.80;;;10.40;99.90;;;;;;5055150;28;20025;-74
2022/09/27 07:18:56;;;;;;;4.60;2.05;;;10.50;99.90;;;;;;5065563;28;20049;-73
2022/09/27 07:21:23;;;;;;;6.70;2.08;;;10.40;99.90;;;;;;5051848;28;20025;-74
2022/09/27 07:23:48;;;;;;;3.58;2.10;;;10.40;99.90;;;;;;5050738;28;20051;-74
2022/09/27 07:26:14;;;;;;;3.72;1.88;;;10.40;99.90;;;;;;5065696;28;20093;-72
2022/09/27 07:28:40;;;;;;;5.85;2.10;;;10.40;99.90;;;;;;5052097;28;20053;-74
2022/09/27 07:31:07;;;;;;;6.70;2.20;;;10.50;99.90;;;;;;5054746;28;20108;-74
2022/09/27 07:33:33;;;;;;;5.47;1.67;;;10.50;99.90;;;;;;5067099;28;20132;-76
2022/09/27 07:35:59;;;;;;;7.55;2.03;;;10.60;99.90;;;;;;5050937;28;20021;-73
2022/09/27 07:38:25;;;;;;;3.00;1.73;;;10.50;99.90;;;;;;5049267;28;20093;-70
2022/09/27 07:40:51;;;;;;;4.53;1.98;;;10.50;99.90;;;;;;5050032;28;20029;-72
2022/09/27 07:43:16;;;;;;;6.70;2.55;;;10.50;99.90;;;;;;5051077;28;20041;-70
2022/09/27 07:45:42;;;;;;;9.60;2.08;;;10.60;99.90;;;;;;5066448;28;20088;-71
2022/09/27 07:48:12;;;;;;;6.63;1.85;;;10.60;99.90;;;;;;5056882;28;20021;-72
2022/09/27 07:50:37;;;;;;;2.53;1.35;;;10.70;99.90;;;;;;5068018;28;20051;-74
2022/09/27 07:53:04;;;;;;;5.88;1.40;;;10.70;99.90;;;;;;5050039;28;20032;-73
2022/09/27 07:55:30;;;;;;;6.45;1.98;;;10.70;99.90;;;;;;5046423;28;20028;-72
2022/09/27 07:58:07;;;;;;;3.17;1.58;;;10.70;99.90;;;;;;5059810;28;20040;-72
2022/09/27 08:00:34;;;;;;;3.40;1.65;;;10.70;99.90;;;;;;5048114;28;20397;-72
2022/09/27 08:03:05;;;;;;;4.28;1.23;;;10.80;99.90;;;;;;5063232;28;20028;-74
2022/09/27 08:05:33;;;;;;;5.68;1.40;;;10.80;99.90;;;;;;5063537;28;20396;-75
2022/09/27 08:07:59;;;;;;;1.80;1.13;;;10.80;99.90;;;;;;5054750;28;20025;-74
2022/09/27 08:10:30;;;;;;;2.30;1.20;;;10.80;99.90;;;;;;5058938;28;20854;-70
2022/09/27 08:13:04;;;;;;;2.25;0.93;;;10.80;99.90;;;;;;5052111;28;20036;-74
2022/09/27 08:15:32;;;;;;;1.83;0.85;;;10.80;99.90;;;;;;5056244;28;20081;-75
2022/09/27 08:17:57;;;;;;;1.63;0.80;;;10.80;99.90;;;;;;5054786;28;20403;-72
2022/09/27 08:20:23;;;;;;;3.33;1.00;;;10.80;99.90;;;;;;5054392;28;20029;-76
2022/09/27 08:22:48;;;;;;;1.90;1.05;;;10.80;99.90;;;;;;5052042;28;20550;-75
2022/09/27 08:25:16;;;;;;;4.85;1.95;;;10.90;99.90;;;;;;5056594;28;20036;-73
2022/09/27 08:27:42;;;;;;;6.25;2.45;;;10.90;99.90;;;;;;5054029;28;20041;-71
2022/09/27 08:30:08;;;;;;;5.38;1.95;;;10.90;99.90;;;;;;5053259;28;20025;-74
2022/09/27 08:32:34;;;;;;;4.63;1.23;;;10.80;99.90;;;;;;5055084;28;20040;-74
2022/09/27 08:34:59;;;;;;;5.47;2.25;;;10.90;99.90;;;;;;5055064;28;20021;-75
2022/09/27 08:37:25;;;;;;;3.10;1.88;;;10.90;99.90;;;;;;5068467;28;20068;-73
2022/09/27 08:39:51;;;;;;;2.83;1.75;;;10.90;99.90;;;;;;5053749;28;20029;-74
2022/09/27 08:42:38;;;;;;;5.32;1.80;;;10.90;99.90;;;;;;5051437;28;20081;-73
2022/09/27 08:45:36;;;;;;;4.07;1.30;;;10.90;99.90;;;;;;5053312;28;20981;-71
2022/09/27 08:48:04;;;;;;;5.00;1.23;;;10.90;99.90;;;;;;5052720;28;20179;-73
2022/09/27 08:50:40;;;;;;;2.97;1.50;;;10.90;99.90;;;;;;5056980;28;20033;-72
2022/09/27 08:53:13;;;;;;;2.67;1.13;;;10.90;99.90;;;;;;5054005;28;20032;-73
2022/09/27 08:55:46;;;;;;;2.28;1.02;;;11.00;99.90;;;;;;5051461;28;20106;-76
2022/09/27 08:58:34;;;;;;;3.55;1.10;;;11.00;99.90;;;;;;5054301;28;20033;-73
2022/09/27 09:01:06;;;;;;;3.88;0.80;;;11.00;99.90;;;;;;5050703;28;20469;-74
2022/09/27 09:03:38;;;;;;;2.78;1.08;;;11.00;99.90;;;;;;5050644;28;20053;-75
2022/09/27 09:06:22;;;;;;;2.05;0.93;;;11.10;99.90;;;;;;5052059;28;20413;-72
2022/09/27 09:09:18;;;;;;;2.60;1.08;;;11.00;99.90;;;;;;5053722;28;20017;-72
2022/09/27 09:15:55;;;;;;;2.80;1.25;;;11.00;99.90;;;;;;5053862;28;20593;-73
2022/09/27 09:18:45;;;;;;;4.20;1.40;;;11.10;99.90;;;;;;5052595;28;20070;-73
2022/09/27 09:21:48;;;;;;;6.03;1.55;;;11.10;99.90;;;;;;5048442;28;20033;-72
2022/09/27 09:24:14;;;;;;;4.18;1.58;;;11.20;99.90;;;;;;5054331;28;20484;-72
2022/09/27 09:26:58;;;;;;;8.10;1.98;;;11.20;99.90;;;;;;5053219;28;20048;-71
2022/09/27 09:29:49;;;;;;;4.68;1.70;;;11.30;99.90;;;;;;5051885;28;20096;-71
2022/09/27 09:32:52;;;;;;;3.67;1.40;;;11.20;99.90;;;;;;5070255;28;20489;-73
2022/09/27 09:35:58;;;;;;;4.65;1.13;;;11.30;99.90;;;;;;5052759;28;20026;-72
2022/09/27 09:38:47;;;;;;;10.98;1.40;;;11.30;99.90;;;;;;5049781;28;20063;-73
2022/09/27 09:41:42;;;;;;;1.45;0.98;;;11.30;99.90;;;;;;5052728;28;20021;-74
2022/09/27 09:44:26;;;;;;;6.70;1.38;;;11.20;99.90;;;;;;5050481;28;20033;-73
2022/09/27 09:46:56;;;;;;;3.30;1.25;;;11.30;99.90;;;;;;5053581;28;20043;-72
2022/09/27 09:49:32;;;;;;;3.90;1.13;;;11.20;99.90;;;;;;5053755;28;20145;-70
2022/09/27 09:52:03;;;;;;;2.15;1.20;;;11.20;99.90;;;;;;5053281;28;20412;-70
2022/09/27 09:54:40;;;;;;;3.20;1.13;;;11.10;99.90;;;;;;5052692;28;20047;-72
2022/09/27 09:57:20;;;;;;;4.63;2.22;;;11.10;99.90;;;;;;5053252;28;20036;-73
2022/09/27 10:00:14;;;;;;;4.60;1.80;;;11.00;99.90;;;;;;5054358;28;20033;-71
2022/09/27 10:02:42;;;;;;;4.25;1.40;;;11.00;99.90;;;;;;5049390;28;20426;-73
2022/09/27 10:05:19;;;;;;;2.38;1.38;;;11.00;99.90;;;;;;5052760;28;20401;-74
2022/09/27 10:07:45;;;;;;;2.97;1.42;;;11.00;99.90;;;;;;5052795;28;20029;-76
2022/09/27 10:10:16;;;;;;;4.22;1.23;;;11.00;99.90;;;;;;5067822;28;20034;-75
2022/09/27 10:12:42;;;;;;;3.33;1.45;;;11.00;99.90;;;;;;5052164;28;20017;-74
2022/09/27 10:15:23;;;;;;;5.03;1.67;;;10.90;99.90;;;;;;5052616;28;20032;-74
2022/09/27 10:17:53;;;;;;;7.25;1.98;;;10.90;99.90;;;;;;5052676;28;20033;-73
2022/09/27 10:20:42;;;;;;;2.85;1.40;;;10.90;99.90;;;;;;5052591;28;20021;-74
2022/09/27 10:23:18;;;;;;;3.38;1.50;;;10.90;99.90;;;;;;5052978;28;20017;-74
2022/09/27 10:25:56;;;;;;;4.40;1.83;;;10.90;99.90;;;;;;5052295;28;20048;-73
2022/09/27 10:28:31;;;;;;;3.22;1.92;;;10.90;99.90;;;;;;5052256;28;20056;-73
2022/09/27 10:31:01;;;;;;;3.00;1.65;;;10.80;99.90;;;;;;5052016;28;20083;-73
2022/09/27 10:33:28;;;;;;;3.45;1.88;;;10.80;99.90;;;;;;5052280;28;20025;-74
2022/09/27 10:35:54;;;;;;;2.92;1.75;;;10.80;99.90;;;;;;5060237;28;20025;-75
2022/09/27 10:38:36;;;;;;;2.40;1.52;;;10.80;99.90;;;;;;5067497;28;20111;-75
2022/09/27 10:41:30;;;;;;;3.35;1.85;;;10.70;99.90;;;;;;5053031;28;20034;-74
2022/09/27 10:43:56;;;;;;;4.03;1.90;;;10.80;99.90;;;;;;5052934;28;20092;-73
2022/09/27 10:46:27;;;;;;;3.10;1.65;;;10.80;99.90;;;;;;5066452;28;20053;-71
2022/09/27 10:49:20;;;;;;;6.95;1.75;;;10.80;99.90;;;;;;5054266;28;20053;-71
2022/09/27 10:51:51;;;;;;;3.85;1.35;;;10.80;99.90;;;;;;5052066;28;20480;-70
2022/09/27 10:54:33;;;;;;;7.13;1.67;;;10.80;99.90;;;;;;5053737;28;20030;-70
2022/09/27 10:57:12;;;;;;;3.22;1.73;;;10.80;99.90;;;;;;5051502;28;20524;-69
2022/09/27 10:59:41;;;;;;;2.72;1.35;;;10.90;99.90;;;;;;5051539;28;20045;-70
2022/09/27 11:02:23;;;;;;;7.05;2.17;;;10.90;99.90;;;;;;5052045;28;20033;-72
2022/09/27 11:05:28;;;;;;;10.63;2.38;;;10.90;99.90;;;;;;5052534;28;20481;-71
2022/09/27 11:08:17;;;;;;;4.50;2.20;;;10.90;99.90;;;;;;5015437;28;20060;-71
2022/09/27 11:11:15;;;;;;;3.97;2.20;;;10.90;99.90;;;;;;5043957;28;20045;-72
2022/09/27 11:13:56;;;;;;;4.68;2.30;;;10.80;99.90;;;;;;5051780;28;20041;-78
2022/09/27 11:16:47;;;;;;;3.33;2.00;;;10.80;99.90;;;;;;5049962;28;20116;-71
2022/09/27 11:19:46;;;;;;;9.52;2.08;;;10.80;99.90;;;;;;5049121;28;20068;-72
2022/09/27 11:22:40;;;;;;;3.38;2.10;;;10.70;99.90;;;;;;5051154;28;20037;-73
2022/09/27 11:25:27;;;;;;;4.40;1.90;;;10.70;99.90;;;;;;5051394;28;20029;-75
2022/09/27 11:28:24;;;;;;;3.22;2.03;;;10.60;99.90;;;;;;5050780;28;20046;-72
2022/09/27 11:31:04;;;;;;;6.78;1.75;;;10.60;99.90;;;;;;5028465;28;20040;-70
2022/09/27 11:34:12;;;;;;;4.35;1.75;;;10.60;99.90;;;;;;5050938;28;20048;-73
2022/09/27 11:37:01;;;;;;;7.60;2.15;;;10.70;99.90;;;;;;5052061;28;20021;-72
2022/09/27 11:39:40;;;;;;;7.82;2.20;;;10.70;99.90;;;;;;5051005;28;20057;-70
2022/09/27 11:42:26;;;;;;;5.80;2.30;;;10.70;99.90;;;;;;5051272;28;20040;-72
2022/09/27 11:45:11;;;;;;;5.80;2.47;;;10.80;99.90;;;;;;5051960;28;20025;-72
2022/09/27 11:47:52;;;;;;;5.18;2.70;;;10.90;99.90;;;;;;5055038;28;20033;-73
2022/09/27 11:50:37;;;;;;;6.13;2.83;;;11.00;99.90;;;;;;5055040;28;20082;-71
2022/09/27 11:53:12;;;;;;;3.65;2.15;;;11.10;99.90;;;;;;5054683;28;20029;-69
2022/09/27 11:55:54;;;;;;;6.03;2.42;;;11.10;99.90;;;;;;5055432;28;20037;-73
2022/09/27 11:58:33;;;;;;;4.20;2.25;;;11.20;99.90;;;;;;5054360;28;20358;-73
2022/09/27 12:01:21;;;;;;;5.63;2.33;;;11.20;99.90;;;;;;5053476;28;20472;-73
2022/09/27 12:04:11;;;;;;;3.83;2.03;;;11.20;99.90;;;;;;5046908;28;20053;-71
2022/09/27 12:06:45;;;;;;;4.10;2.10;;;11.20;99.90;;;;;;5054202;28;20041;-71
2022/09/27 12:09:13;;;;;;;;;;;11.20;99.90;;;;;;5055878;28;20032;-70
2022/09/27 12:11:45;;;;;;;6.05;2.35;;;11.20;99.90;;;;;;5056399;28;19913;-73
2022/09/27 12:14:22;;;;;;;4.05;1.92;;;11.20;99.90;;;;;;5057219;28;20029;-70
2022/09/27 12:16:51;;;;;;;4.55;1.60;;;11.20;99.90;;;;;;5055043;28;20037;-71
2022/09/27 12:19:41;;;;;;;4.88;2.22;;;11.20;99.90;;;;;;5054407;28;20033;-71
2022/09/27 12:22:14;;;;;;;3.45;1.63;;;11.30;99.90;;;;;;5055572;28;20030;-73
2022/09/27 12:24:42;;;;;;;5.25;1.92;;;11.30;99.90;;;;;;5054755;28;20371;-71
2022/09/27 12:27:33;;;;;;;5.60;2.17;;;11.20;99.90;;;;;;5053990;28;20041;-73
2022/09/27 12:29:59;;;;;;;5.15;1.92;;;11.30;99.90;;;;;;5054103;28;20118;-71
2022/09/27 12:33:07;;;;;;;4.53;2.03;;;11.30;99.90;;;;;;5053545;28;20380;-72
2022/09/27 12:35:45;;;;;;;3.78;1.63;;;11.30;99.90;;;;;;5054570;28;20033;-74
2022/09/27 12:38:24;;;;;;;5.63;2.03;;;11.40;99.90;;;;;;5053872;28;20034;-72
2022/09/27 12:40:57;;;;;;;4.40;1.90;;;11.40;99.90;;;;;;5053865;28;20036;-75
2022/09/27 12:43:26;;;;;;;2.50;1.45;;;11.40;99.90;;;;;;5054326;28;20108;-72
2022/09/27 12:46:41;;;;;;;7.55;1.92;;;11.40;99.90;;;;;;5053673;28;20069;-73
2022/09/27 12:49:17;;;;;;;;;;;11.30;99.90;;;;;;5053582;28;20092;-76
2022/09/27 12:51:55;;;;;;;2.92;1.00;;;11.30;99.90;;;;;;5054948;28;19912;-74
2022/09/27 12:54:26;;;;;;;3.25;1.00;;;11.30;99.90;;;;;;5053420;28;20049;-73
2022/09/27 12:57:06;;;;;;;2.35;1.05;;;11.30;99.90;;;;;;5053761;28;20057;-73
2022/09/27 12:59:55;;;;;;;8.80;1.15;;;11.30;99.90;;;;;;5069042;28;20043;-73
2022/09/27 13:02:49;;;;;;;1.80;0.75;;;11.30;99.90;;;;;;5053442;28;20029;-72
2022/09/27 13:05:40;;;;;;;1.57;0.80;;;11.30;99.90;;;;;;5051659;28;20029;-73
2022/09/27 13:08:30;;;;;;;3.97;1.50;;;11.30;99.90;;;;;;5053675;28;20075;-71
2022/09/27 13:11:10;;;;;;;2.00;0.98;;;11.30;99.90;;;;;;5053755;28;20053;-72
2022/09/27 13:13:38;;;;;;;2.75;1.15;;;11.40;99.90;;;;;;5051923;28;20021;-72
2022/09/27 13:16:05;;;;;;;1.45;0.80;;;11.40;99.90;;;;;;5052215;28;20068;-72
2022/09/27 13:18:55;;;;;;;2.78;1.17;;;11.30;99.90;;;;;;5051885;28;20064;-71
2022/09/27 13:21:48;;;;;;;1.63;0.90;;;11.40;99.90;;;;;;5039509;28;20033;-72
2022/09/27 13:24:38;;;;;;;1.52;0.82;;;11.40;99.90;;;;;;5052975;28;20108;-73
2022/09/27 13:27:24;;;;;;;5.40;1.00;;;11.40;99.90;;;;;;5040598;28;20061;-71
2022/09/27 13:29:50;;;;;;;3.88;1.50;;;11.40;99.90;;;;;;5053201;28;20028;-72
2022/09/27 13:32:27;;;;;;;1.13;0.63;;;11.30;99.90;;;;;;5058778;28;20063;-70
2022/09/27 13:34:55;;;;;;;5.78;1.23;;;11.40;99.90;;;;;;5052975;28;20021;-70
2022/09/27 13:37:35;;;;;;;9.48;1.80;;;11.30;99.90;;;;;;5051921;28;20044;-70
2022/09/27 13:40:23;;;;;;;20.30;7.03;;;11.40;99.90;;;;;;5066363;28;20029;-69
2022/09/27 13:43:12;;;;;;;4.80;1.92;;;11.40;99.90;;;;;;5066749;28;20040;-71
2022/09/27 13:45:54;;;;;;;64.30;22.30;;;11.40;99.90;;;;;;5051679;28;20052;-71
2022/09/27 13:48:26;;;;;;;16.50;7.03;;;11.50;99.90;;;;;;5051517;28;20021;-71
2022/09/27 13:51:15;;;;;;;6.82;3.92;;;11.50;99.90;;;;;;5051950;28;20457;-69
2022/09/27 13:53:45;;;;;;;9.77;3.92;;;11.50;99.90;;;;;;5052209;28;20067;-71
2022/09/27 13:56:47;;;;;;;8.10;2.78;;;11.60;99.90;;;;;;5052442;28;20033;-70
2022/09/27 13:59:34;;;;;;;10.15;3.67;;;11.60;99.90;;;;;;5040245;28;20069;-74
2022/09/27 14:02:43;;;;;;;4.15;1.83;;;11.60;99.90;;;;;;5050906;28;20033;-69
2022/09/27 14:05:16;;;;;;;2.13;1.13;;;11.50;99.90;;;;;;5045779;28;20048;-71
2022/09/27 14:07:45;;;;;;;4.70;1.55;;;11.40;99.90;;;;;;5051238;28;20123;-71
2022/09/27 14:10:16;;;;;;;0.82;0.70;;;11.50;99.90;;;;;;5050838;28;20025;-71
2022/09/27 14:12:43;;;;;;;1.42;0.90;;;11.50;99.90;;;;;;5051567;28;20060;-72
2022/09/27 14:15:19;;;;;;;3.75;1.05;;;11.50;99.90;;;;;;5065983;28;20445;-71
2022/09/27 14:17:45;;;;;;;2.35;1.05;;;11.60;99.90;;;;;;5032322;28;20029;-71
2022/09/27 14:20:31;;;;;;;1.05;0.55;;;11.70;99.90;;;;;;5053017;28;20040;-71
2022/09/27 14:22:57;;;;;;;2.08;1.08;;;11.70;99.90;;;;;;5052293;28;20028;-70
2022/09/27 14:25:24;;;;;;;3.28;1.13;;;11.80;99.90;;;;;;5052357;28;20509;-71
2022/09/27 14:27:50;;;;;;;1.77;0.90;;;11.90;99.90;;;;;;5051941;28;20044;-69
2022/09/27 14:30:21;;;;;;;1.90;1.00;;;12.00;99.90;;;;;;5052296;28;20041;-70
2022/09/27 14:32:49;;;;;;;1.48;0.80;;;12.20;99.90;;;;;;5053080;28;20025;-72
2022/09/27 14:38:12;;;;;;;1.95;0.90;;;12.40;99.90;;;;;;5034205;28;20102;-71
2022/09/27 14:40:53;;;;;;;1.38;0.60;;;12.40;99.90;;;;;;5052240;28;20033;-73
2022/09/27 14:43:20;;;;;;;7.18;0.90;;;12.30;99.90;;;;;;5050953;28;20016;-72
2022/09/27 14:45:52;;;;;;;2.17;1.27;;;12.30;99.90;;;;;;5049525;28;20034;-72
2022/09/27 14:48:20;;;;;;;2.67;0.90;;;12.30;99.90;;;;;;5052525;28;20017;-73
2022/09/27 14:51:11;;;;;;;1.85;0.80;;;12.30;99.90;;;;;;5052013;28;20021;-73
2022/09/27 14:53:52;;;;;;;4.50;1.30;;;12.30;99.90;;;;;;5053029;28;20045;-74
2022/09/27 14:56:26;;;;;;;1.42;0.88;;;12.30;99.90;;;;;;5052289;28;20080;-72
2022/09/27 14:59:01;;;;;;;1.65;1.02;;;12.40;99.90;;;;;;5049885;28;20079;-71
2022/09/27 15:01:27;;;;;;;1.27;0.85;;;12.40;99.90;;;;;;5066327;28;20079;-70
2022/09/27 15:03:54;;;;;;;4.35;1.73;;;12.70;99.90;;;;;;5054260;28;20657;-70
2022/09/27 15:06:20;;;;;;;2.40;1.10;;;13.10;99.90;;;;;;5066337;28;20033;-71
2022/09/27 15:08:48;;;;;;;3.35;1.63;;;13.10;99.90;;;;;;5065748;28;20045;-70
2022/09/27 15:11:16;;;;;;;3.40;1.77;;;13.10;99.90;;;;;;5051455;28;20101;-70
2022/09/27 15:13:44;;;;;;;4.63;1.85;;;13.10;99.90;;;;;;5051910;28;20026;-71
2022/09/27 15:16:17;;;;;;;4.80;2.33;;;13.00;99.90;;;;;;5050833;28;20071;-71
2022/09/27 15:18:45;;;;;;;3.85;1.27;;;12.80;99.90;;;;;;5064951;28;20041;-72
2022/09/27 15:21:14;;;;;;;6.18;2.00;;;12.70;99.90;;;;;;5050927;28;20037;-70
2022/09/27 15:23:43;;;;;;;5.60;1.30;;;12.60;99.90;;;;;;5052578;28;20119;-70
2022/09/27 15:26:35;;;;;;;1.40;1.20;;;12.60;99.90;;;;;;5066434;28;20401;-71
2022/09/27 15:29:00;;;;;;;1.52;1.02;;;12.70;99.90;;;;;;5050955;28;20067;-72
2022/09/27 15:31:31;;;;;;;2.78;1.10;;;13.00;99.90;;;;;;5066163;28;20025;-70
2022/09/27 15:33:58;;;;;;;1.73;1.20;;;13.30;99.90;;;;;;5050734;28;20036;-72
2022/09/27 15:36:50;;;;;;;2.17;0.73;;;13.80;99.90;;;;;;5051427;28;20025;-73
2022/09/27 15:39:18;;;;;;;0.70;0.57;;;14.30;99.90;;;;;;5052117;28;20024;-71
2022/09/27 15:42:12;;;;;;;1.73;0.80;;;14.70;99.90;;;;;;5051674;28;20535;-70
2022/09/27 15:44:50;;;;;;;3.50;1.27;;;14.90;99.90;;;;;;5051528;28;20358;-72
2022/09/27 15:47:31;;;;;;;1.10;0.57;;;14.70;99.90;;;;;;5051630;28;20038;-70
2022/09/27 15:50:15;;;;;;;0.60;0.40;;;14.40;99.90;;;;;;5050737;28;20068;-71
2022/09/27 15:52:46;;;;;;;0.43;0.30;;;13.90;99.90;;;;;;5066933;28;20055;-70
2022/09/27 15:55:15;;;;;;;1.52;0.60;;;13.80;99.90;;;;;;5053546;28;20017;-72
2022/09/27 15:57:43;;;;;;;0.45;0.30;;;13.50;99.90;;;;;;5067000;28;20079;-73
2022/09/27 16:00:17;;;;;;;0.93;0.40;;;13.30;99.90;;;;;;5051918;28;20043;-73
2022/09/27 16:02:44;;;;;;;4.38;0.68;;;13.00;99.90;;;;;;5051997;28;20033;-73
2022/09/27 16:05:11;;;;;;;1.83;0.60;;;12.80;99.90;;;;;;5051244;28;20052;-72
2022/09/27 16:07:36;;;;;;;0.95;0.50;;;12.70;99.90;;;;;;5051227;28;20083;-72
2022/09/27 16:10:19;;;;;;;3.45;0.90;;;12.60;99.90;;;;;;5051055;28;20036;-72
2022/09/27 16:12:45;;;;;;;1.80;1.02;;;12.60;99.90;;;;;;5050207;28;20120;-72
2022/09/27 16:15:12;;;;;;;2.80;0.95;;;12.70;99.90;;;;;;5050827;28;20131;-72
2022/09/27 16:17:39;;;;;;;2.88;1.30;;;12.70;99.90;;;;;;5067441;28;20064;-71
2022/09/27 16:20:05;;;;;;;2.75;1.40;;;12.70;99.90;;;;;;5051636;28;20029;-73
2022/09/27 16:22:30;;;;;;;3.05;1.27;;;12.60;99.90;;;;;;5050250;28;20755;-72
2022/09/27 16:24:56;;;;;;;2.15;1.20;;;12.50;99.90;;;;;;5050728;28;20037;-71
2022/09/27 16:27:26;;;;;;;1.33;0.90;;;12.40;99.90;;;;;;5050535;28;20085;-73
2022/09/27 16:29:52;;;;;;;0.88;0.70;;;12.30;99.90;;;;;;5054244;28;20034;-70
2022/09/27 16:32:18;;;;;;;2.20;0.77;;;12.20;99.90;;;;;;5054621;28;20465;-72
2022/09/27 16:34:44;;;;;;;1.85;1.02;;;12.10;99.90;;;;;;5054582;28;20045;-72
2022/09/27 16:37:10;;;;;;;2.38;1.25;;;12.10;99.90;;;;;;5053009;28;20017;-73
2022/09/27 16:39:35;;;;;;;2.63;1.50;;;12.00;99.90;;;;;;5054859;28;20044;-73
2022/09/27 16:42:06;;;;;;;5.05;1.70;;;11.90;99.90;;;;;;5054873;28;20119;-71
2022/09/27 16:44:34;;;;;;;2.45;1.13;;;11.80;99.90;;;;;;5055312;28;20101;-73
2022/09/27 16:47:03;;;;;;;2.03;1.20;;;11.80;99.90;;;;;;5054522;28;20048;-74
2022/09/27 16:52:14;;;;;;;;;;;11.70;99.90;;;;;;5054284;28;20405;-71
2022/09/27 16:54:41;;;;;;;4.25;1.48;;;11.70;99.90;;;;;;5053874;28;19972;-71
2022/09/27 16:57:07;;;;;;;2.53;1.50;;;11.60;99.90;;;;;;5054010;28;20091;-73
2022/09/27 16:59:33;;;;;;;5.00;2.10;;;11.50;99.90;;;;;;5053474;28;20040;-73
2022/09/27 17:01:58;;;;;;;1.77;1.20;;;11.40;99.90;;;;;;5054969;28;20076;-72
2022/09/27 17:04:26;;;;;;;4.15;1.65;;;11.30;99.90;;;;;;5054110;28;20037;-72
2022/09/27 17:06:52;;;;;;;4.57;1.45;;;11.20;99.90;;;;;;5054094;28;20037;-72
2022/09/27 17:09:18;;;;;;;4.57;2.10;;;11.30;99.90;;;;;;5053967;28;20060;-72
2022/09/27 17:11:44;;;;;;;5.55;2.17;;;11.20;99.90;;;;;;5068618;28;20029;-73
2022/09/27 17:14:13;;;;;;;8.32;1.63;;;11.10;99.90;;;;;;5054266;28;20059;-73
2022/09/27 17:16:39;;;;;;;2.17;1.42;;;11.00;99.90;;;;;;5069168;28;20079;-73
2022/09/27 17:19:04;;;;;;;3.20;1.60;;;10.90;99.90;;;;;;5054414;28;20075;-71
2022/09/27 17:21:30;;;;;;;2.42;1.48;;;10.90;99.90;;;;;;5053807;28;20025;-72
2022/09/27 17:23:55;;;;;;;2.05;1.20;;;10.80;99.90;;;;;;5053867;28;20598;-72
2022/09/27 17:26:22;;;;;;;3.60;1.67;;;10.70;99.90;;;;;;5052508;28;20037;-71
2022/09/27 17:28:49;;;;;;;3.33;1.52;;;10.70;99.90;;;;;;5053030;28;20045;-71
2022/09/27 17:31:17;;;;;;;2.13;1.27;;;10.70;99.90;;;;;;5064976;28;20069;-72
2022/09/27 17:33:45;;;;;;;2.30;1.45;;;10.60;99.90;;;;;;5052053;28;20017;-71
2022/09/27 17:36:17;;;;;;;4.07;1.30;;;10.50;99.90;;;;;;5052055;28;20039;-72
2022/09/27 17:38:44;;;;;;;4.22;1.30;;;10.50;99.90;;;;;;5051936;28;20108;-72
2022/09/27 17:41:13;;;;;;;5.57;1.90;;;10.40;99.90;;;;;;5051849;28;20052;-73
2022/09/27 17:43:50;;;;;;;3.90;2.00;;;10.40;99.90;;;;;;5052010;28;20048;-72
2022/09/27 17:46:21;;;;;;;5.63;2.13;;;10.30;99.90;;;;;;5052547;28;20040;-71
2022/09/27 17:51:33;;;;;;;4.32;1.75;;;10.30;99.90;;;;;;5054316;28;20036;-71
2022/09/27 17:53:59;;;;;;;5.05;1.85;;;10.20;99.90;;;;;;5052751;28;20021;-71
2022/09/27 17:56:24;;;;;;;3.28;1.58;;;10.20;99.90;;;;;;5052864;28;20020;-71
2022/09/27 17:58:52;;;;;;;1.48;1.17;;;10.20;99.90;;;;;;5053285;28;20060;-71
2022/09/27 18:01:19;;;;;;;3.40;1.60;;;10.20;99.90;;;;;;5052215;28;20108;-71
2022/09/27 18:03:46;;;;;;;5.55;1.90;;;10.10;99.90;;;;;;5051963;28;20064;-71
2022/09/27 18:06:13;;;;;;;4.63;1.95;;;10.00;99.90;;;;;;5052670;28;20088;-71
2022/09/27 18:08:39;;;;;;;3.25;1.60;;;10.00;99.90;;;;;;5068441;28;20087;-73
2022/09/27 18:11:07;;;;;;;2.20;1.38;;;10.00;99.90;;;;;;5052826;28;20029;-71
2022/09/27 18:13:42;;;;;;;2.75;1.38;;;9.90;99.90;;;;;;5053461;28;20029;-71
2022/09/27 18:16:10;;;;;;;5.85;1.88;;;9.90;99.90;;;;;;5052644;28;20025;-71
2022/09/27 18:18:40;;;;;;;7.90;1.92;;;9.90;99.90;;;;;;5053572;28;20041;-71
2022/09/27 18:21:10;;;;;;;5.65;2.40;;;9.80;99.90;;;;;;5053142;28;20033;-70
2022/09/27 18:23:36;;;;;;;8.75;2.58;;;9.80;99.90;;;;;;5052666;28;20036;-71
2022/09/27 18:26:07;;;;;;;4.78;2.22;;;9.90;99.90;;;;;;5051391;28;20148;-71
2022/09/27 18:28:38;;;;;;;5.18;1.77;;;9.70;99.90;;;;;;5051319;28;20053;-71
2022/09/27 18:31:14;;;;;;;4.65;1.30;;;9.70;99.90;;;;;;5051835;28;20026;-70
2022/09/27 18:33:40;;;;;;;3.35;1.35;;;9.70;99.90;;;;;;5054146;28;20071;-70
2022/09/27 18:36:09;;;;;;;2.13;1.23;;;9.70;99.90;;;;;;5053085;28;20468;-70
2022/09/27 18:38:34;;;;;;;5.07;2.00;;;9.70;99.90;;;;;;5052780;28;20089;-72
2022/09/27 18:41:11;;;;;;;8.18;3.20;;;9.70;99.90;;;;;;5053559;28;20048;-72
2022/09/27 18:43:37;;;;;;;5.63;2.65;;;9.70;99.90;;;;;;5052299;28;20037;-70
2022/09/27 18:46:08;;;;;;;5.50;2.65;;;9.70;99.90;;;;;;5053597;28;20040;-70
2022/09/27 18:48:35;;;;;;;4.22;1.70;;;9.70;99.90;;;;;;5052093;28;20017;-73
2022/09/27 18:51:15;;;;;;;5.90;1.77;;;9.60;99.90;;;;;;5052829;28;20033;-71
2022/09/27 18:53:42;;;;;;;3.05;1.65;;;9.60;99.90;;;;;;5054672;28;20059;-72
2022/09/27 18:56:13;;;;;;;4.72;1.80;;;9.60;99.90;;;;;;5066271;28;20024;-71
2022/09/27 18:58:41;;;;;;;4.95;2.25;;;9.60;99.90;;;;;;5051791;28;20171;-71
2022/09/27 19:01:09;;;;;;;9.05;2.60;;;9.50;99.90;;;;;;5065648;28;20032;-73